Afton, Tennessee
Current Conditions -  °F | °C
As of 6:53 AM on Tuesday 27 Jan 2015 (Local Time) from KTRI Reporting Station
Overcast Overcast  
Wind Chill: 24°   Ceiling: 3500
Heat Index: 29°   Visibility: 10mi
Dew Point: 23°   Wind: 5mph
Humidity: 78%   Direction: 290°WNW
Pressure: 29.86"   Gusts: NA
Location:  36.19°N, 82.74°W
Report Text: KTRI 271153Z 29004KT 10SM BKN035 BKN060 OVC070 M02/M05 A2986 RMK AO2 SLP112 70007 T10171050 11011 21022 53009
Loading
Personal Weather Stations






























Interactive Weather Map New forecast layout! Learn more

10-Day Weather Forecast

Advertisements
Track Severe Weather on mobile